ADDS METAR Data INFO
IDs: Format: Raw Decoded Include TAF

Data at: 1717 UTC 23 Oct 2017

KGGI 231655Z AUTO 33010KT 10SM BKN110 12/06 A2984 RMK AO2 T01210062
KGGI 231635Z AUTO 32016G21KT 10SM SCT110 12/06 A2984 RMK AO2 T01170060
KGGI 231615Z AUTO 30013G18KT 10SM SCT110 11/06 A2985 RMK AO2 T01080060
KGGI 231555Z AUTO 28012KT 10SM SCT120 10/06 A2986 RMK AO2 T01020060
KGGI 231535Z AUTO 27008KT 10SM SCT120 09/06 A2987 RMK AO2 T00920055
KGGI 231515Z AUTO 23007KT 10SM OVC120 09/05 A2987 RMK AO2 T00880049
KGGI 231455Z AUTO 24008KT 10SM BKN120 09/05 A2988 RMK AO2 T00890050
KGGI 231435Z AUTO 20005KT 10SM SCT120 08/05 A2988 RMK AO2 T00840048
KGGI 231415Z AUTO 16007KT 10SM SCT120 08/05 A2989 RMK AO2 T00760046
KGGI 231355Z AUTO 18008KT 10SM CLR 08/04 A2989 RMK AO2 T00750044
KGGI 231335Z AUTO 18005KT 10SM CLR 07/04 A2987 RMK AO2 T00700041
KGGI 231315Z AUTO 21005KT 10SM CLR 07/04 A2987 RMK AO2 T00670037
KGGI 231255Z AUTO 19007KT 10SM CLR 07/04 A2987 RMK AO2 T00660036
KGGI 231235Z AUTO 19006KT 10SM CLR 06/04 A2986 RMK AO2 T00630036
KGGI 231215Z AUTO 20005KT 10SM CLR 06/04 A2988 RMK AO2 T00600036
KGGI 231155Z AUTO 19005KT 10SM CLR 06/04 A2988 RMK AO2 T00560035 10080 20048
KGGI 231135Z AUTO 19006KT 10SM CLR 06/04 A2989 RMK AO2 T00570038
KGGI 231115Z AUTO 19006KT 10SM CLR 06/04 A2990 RMK AO2 T00570037
KGGI 231055Z AUTO 19007KT 10SM CLR 06/04 A2991 RMK AO2 T00580040
KGGI 231035Z AUTO 20005KT 10SM CLR 06/04 A2992 RMK AO2 T00560040
KGGI 231015Z AUTO 16005KT 10SM CLR 05/04 A2993 RMK AO2 T00540039
KGGI 230955Z AUTO 17004KT 10SM CLR 05/04 A2993 RMK AO2 T00510037
KGGI 230935Z AUTO 17005KT 10SM CLR 05/04 A2994 RMK AO2 T00500036
KGGI 230915Z AUTO 17005KT 10SM CLR 05/04 A2996 RMK AO2 T00500035
KGGI 230855Z AUTO 17005KT 10SM CLR 05/04 A2996 RMK AO2 T00540039
KGGI 230835Z AUTO 16004KT 10SM CLR 06/04 A2996 RMK AO2 T00570039
KGGI 230815Z AUTO 17007KT 10SM CLR 06/04 A2997 RMK AO2 T00600040
KGGI 230755Z AUTO 19005KT 10SM CLR 07/04 A2998 RMK AO2 T00650043
KGGI 230735Z AUTO 18006KT 10SM CLR 06/04 A2999 RMK AO2 T00610042
KGGI 230715Z AUTO 18004KT 10SM CLR 06/04 A2999 RMK AO2 T00610044
KGGI 230655Z AUTO 17005KT 10SM CLR 06/04 A2999 RMK AO2 T00590041
KGGI 230635Z AUTO 16006KT 10SM CLR 06/04 A3000 RMK AO2 T00630042
KGGI 230615Z AUTO 19005KT 10SM CLR 08/05 A3000 RMK AO2 T00770047
KGGI 230555Z AUTO 19006KT 10SM CLR 08/05 A3001 RMK AO2 T00750048 10103 20070 401550070
KGGI 230535Z AUTO 18005KT 10SM CLR 07/05 A3002 RMK AO2 T00720047
KGGI 230515Z AUTO 18005KT 10SM CLR 07/05 A3002 RMK AO2 T00700047
KGGI 230455Z AUTO 17004KT 10SM CLR 07/05 A3003 RMK AO2 T00710047
KGGI 230435Z AUTO 18004KT 10SM CLR 07/05 A3003 RMK AO2 T00730048
KGGI 230415Z AUTO 18005KT 10SM CLR 08/05 A3003 RMK AO2 T00780051
KGGI 230355Z AUTO 17005KT 10SM CLR 07/05 A3004 RMK AO2 T00720050
KGGI 230335Z AUTO 16005KT 10SM CLR 07/05 A3005 RMK AO2 T00730049
KGGI 230315Z AUTO 17004KT 10SM CLR 08/05 A3005 RMK AO2 T00770050
KGGI 230255Z AUTO 17004KT 10SM CLR 08/05 A3005 RMK AO2 T00780052
KGGI 230235Z AUTO 17005KT 10SM CLR 08/06 A3006 RMK AO2 T00840055
KGGI 230215Z AUTO 19005KT 10SM CLR 08/06 A3006 RMK AO2 T00840057
KGGI 230155Z AUTO 16005KT 10SM CLR 09/06 A3006 RMK AO2 T00870058
KGGI 230135Z AUTO 17004KT 10SM CLR 09/06 A3006 RMK AO2 T00920060
KGGI 230115Z AUTO 18004KT 10SM CLR 09/07 A3006 RMK AO2 T00920065
KGGI 230055Z AUTO 17005KT 10SM CLR 10/07 A3006 RMK AO2 T00960065
KGGI 230035Z AUTO 17005KT 10SM CLR 10/07 A3006 RMK AO2 T00990068
KGGI 230015Z AUTO 16005KT 10SM CLR 10/07 A3006 RMK AO2 T01000070
KGGI 222355Z AUTO 16005KT 10SM CLR 11/07 A3006 RMK AO2 T01080071 10155 20108
KGGI 222335Z AUTO 15005KT 10SM CLR 11/08 A3006 RMK AO2 T01140076
KGGI 222315Z AUTO 16004KT 10SM CLR 13/08 A3006 RMK AO2 T01250081
KGGI 222255Z AUTO 16003KT 10SM CLR 13/08 A3007 RMK AO2 T01330081
KGGI 222235Z AUTO 17004KT 10SM CLR 14/08 A3006 RMK AO2 T01350076
KGGI 222215Z AUTO 18003KT 10SM CLR 14/07 A3006 RMK AO2 T01420071
KGGI 222155Z AUTO 00000KT 10SM CLR 15/07 A3006 RMK AO2 T01460068
KGGI 222135Z AUTO 00000KT 10SM CLR 15/06 A3006 RMK AO2 T01470062
KGGI 222115Z AUTO 00000KT 10SM CLR 15/06 A3006 RMK AO2 T01480058
KGGI 222055Z AUTO 00000KT 10SM CLR 15/06 A3007 RMK AO2 T01470058
KGGI 222035Z AUTO 00000KT 10SM SCT080 15/06 A3006 RMK AO2 T01470058
KGGI 222015Z AUTO 31003KT 10SM CLR 15/06 A3006 RMK AO2 T01480058
KGGI 221955Z AUTO 30004KT 10SM CLR 15/06 A3007 RMK AO2 T01460063
KGGI 221935Z AUTO 30006KT 10SM CLR 15/06 A3007 RMK AO2 T01450062
KGGI 221915Z AUTO 30007KT 10SM CLR 15/07 A3008 RMK AO2 T01450065
KGGI 221855Z AUTO 30010KT 10SM CLR 15/07 A3008 RMK AO2 T01480071
KGGI 221835Z AUTO 32008KT 10SM CLR 15/08 A3008 RMK AO2 T01460079
KGGI 221815Z AUTO 31009KT 10SM CLR 14/09 A3008 RMK AO2 T01360088
KGGI 221755Z AUTO 30009KT 10SM SCT120 12/09 A3007 RMK AO2 T01230085 10123 20095
KGGI 221735Z AUTO 31007KT 10SM BKN120 12/08 A3008 RMK AO2 T01150082
KGGI 221715Z AUTO 31006KT 10SM OVC120 11/08 A3008 RMK AO2 T01110084
KGGI 221655Z AUTO 30007KT 10SM SCT120 11/08 A3008 RMK AO2 T01080082
KGGI 221635Z AUTO 31005KT 10SM SCT120 11/08 A3007 RMK AO2 T01060082
KGGI 221615Z AUTO 30007KT 10SM SCT100 BKN120 11/08 A3008 RMK AO2 T01060080
KGGI 221555Z AUTO 31006KT 10SM OVC100 11/08 A3007 RMK AO2 T01050081
KGGI 221535Z AUTO 29009KT 10SM OVC100 10/08 A3007 RMK AO2 T01030082
KGGI 221515Z AUTO 31007KT 10SM OVC110 10/08 A3005 RMK AO2 T01020080
KGGI 221455Z AUTO 30006KT 10SM OVC110 10/08 A3005 RMK AO2 T01000079
KGGI 221435Z AUTO 31006KT 10SM OVC095 10/08 A3005 RMK AO2 T01000080
KGGI 221415Z AUTO 31004KT 10SM SCT085 OVC090 10/08 A3004 RMK AO2 T00970079
KGGI 221355Z AUTO 29008KT 10SM OVC075 10/08 A3005 RMK AO2 T00970080
KGGI 221335Z AUTO 27007KT 10SM SCT065 OVC080 10/08 A3004 RMK AO2 T00990084
KGGI 221315Z AUTO 29003KT 10SM -RA SCT065 OVC080 10/08 A3002 RMK AO2 T00970083
KGGI 221255Z AUTO 28005KT 10SM OVC065 10/09 A3002 RMK AO2 T00960085
KGGI 221235Z AUTO 29004KT 10SM -DZ BKN065 OVC095 10/09 A3001 RMK AO2 T00960085
KGGI 221215Z AUTO 29004KT 10SM OVC095 10/08 A3000 RMK AO2 T00960084
KGGI 221155Z AUTO 29006KT 10SM DZ OVC095 10/09 A3000 RMK AO2 60012 70097 T00960085 10110 20096
KGGI 221135Z AUTO 30004KT 10SM -DZ SCT070 OVC095 10/09 A2999 RMK AO2 T00960085
KGGI 221115Z AUTO 33003KT 10SM -RA OVC070 10/09 A2998 RMK AO2 T00960085
KGGI 221055Z AUTO 31003KT 10SM RA OVC080 10/09 A2999 RMK AO2 P0001 T00970085
KGGI 221035Z AUTO 30004KT 10SM RA SCT070 OVC080 10/09 A2999 RMK AO2 P0001 T00970086
KGGI 221015Z AUTO 31005KT 10SM -RA OVC070 10/09 A2998 RMK AO2 P0001 T00990087
KGGI 220955Z AUTO 29003KT 10SM -RA OVC075 10/09 A3000 RMK AO2 P0001 T01000086
KGGI 220935Z AUTO 32004KT 10SM -RA SCT060 OVC080 10/09 A2997 RMK AO2 P0001 T01000087
KGGI 220915Z AUTO 32005KT 10SM -RA SCT047 BKN060 OVC080 10/09 A2997 RMK AO2 P0001 T01000087
KGGI 220855Z AUTO 33006KT 10SM RA BKN060 OVC080 10/09 A2996 RMK AO2 60008 T01000086
KGGI 220835Z AUTO 34004KT 10SM -RA BKN060 OVC070 10/09 A2997 RMK AO2 T01010086
KGGI 220815Z AUTO 33006KT 10SM -DZ OVC050 10/09 A2996 RMK AO2 T01010086
KGGI 220755Z AUTO 32009KT 10SM RA SCT042 BKN050 OVC070 10/09 A2995 RMK AO2 P0004 T01010086
KGGI 220735Z AUTO 32010KT 10SM RA SCT042 BKN050 OVC070 10/09 A2994 RMK AO2 P0003 T01020087
KGGI 220715Z AUTO 32012KT 10SM RA SCT039 BKN049 OVC060 10/09 A2995 RMK AO2 P0002 T01030090
KGGI 220655Z AUTO 32010KT 10SM RA SCT036 BKN080 OVC100 11/09 A2995 RMK AO2 P0004 T01050091
KGGI 220635Z AUTO 32008KT 10SM RA SCT042 SCT070 OVC100 11/09 A2994 RMK AO2 P0002 T01050090
KGGI 220615Z AUTO 32010KT 10SM RA OVC100 11/09 A2994 RMK AO2 T01080091
KGGI 220555Z AUTO 31009KT 10SM RA SCT030 SCT045 OVC090 11/10 A2993 RMK AO2 P0005 60085 T01100095 10221 20110 402340110
KGGI 220535Z AUTO 31010KT 10SM RA BKN030 BKN040 OVC100 11/10 A2993 RMK AO2 P0003 T01130097